Time;durP1;ratioP1;P1;durP2;ratioP2;P2;SDS_P1;SDS_P2;PMS_P1;PMS_P2;Temp;Humidity;BMP_temperature;BMP_pressure;BME280_temperature;BME280_humidity;BME280_pressure;Samples;Min_cycle;Max_cycle;Signal;HPM_P1;HPM_P2
2020/12/30 00:00:10;;;;;;;106.30;64.55;;;282.10;2048.00;;;;;;5052653;28;20029;-68
2020/12/30 00:02:35;;;;;;;60.70;35.22;;;282.10;2022.40;;;;;;5052233;28;20021;-68
2020/12/30 00:05:05;;;;;;;38.35;22.80;;;282.10;2022.40;;;;;;5052693;28;20045;-65
2020/12/30 00:07:35;;;;;;;40.70;22.52;;;282.10;1996.80;;;;;;5051583;28;20040;-67
2020/12/30 00:10:00;;;;;;;33.38;19.60;;;282.10;1996.80;;;;;;5052320;28;20366;-70
2020/12/30 00:12:28;;;;;;;32.42;19.83;;;282.00;1996.80;;;;;;5053252;28;20037;-65
2020/12/30 00:14:56;;;;;;;41.67;25.90;;;282.00;1996.80;;;;;;5052161;28;20060;-66
2020/12/30 00:17:22;;;;;;;42.78;25.42;;;282.00;1996.80;;;;;;5050635;28;20021;-65
2020/12/30 00:19:48;;;;;;;35.47;21.90;;;282.00;1996.80;;;;;;5052669;28;20433;-72
2020/12/30 00:22:13;;;;;;;43.80;26.38;;;282.00;1996.80;;;;;;5052137;28;20025;-67
2020/12/30 00:24:39;;;;;;;40.35;24.63;;;282.00;1996.80;;;;;;5053006;28;20025;-65
2020/12/30 00:27:05;;;;;;;37.83;22.00;;;282.00;1996.80;;;;;;5053489;28;20033;-68
2020/12/30 00:29:31;;;;;;;27.23;17.30;;;282.00;1996.80;;;;;;5052969;28;20029;-66
2020/12/30 00:31:57;;;;;;;28.02;17.55;;;282.00;1996.80;;;;;;5052967;28;20162;-67
2020/12/30 00:34:24;;;;;;;22.67;15.23;;;282.00;1996.80;;;;;;5052340;28;20501;-67
2020/12/30 00:36:49;;;;;;;24.55;15.00;;;282.00;1996.80;;;;;;5052465;28;20025;-68
2020/12/30 00:39:15;;;;;;;21.30;13.25;;;282.00;1996.80;;;;;;5047103;28;20049;-66
2020/12/30 00:41:41;;;;;;;23.65;13.23;;;282.00;1996.80;;;;;;5052429;28;20033;-67
2020/12/30 00:44:07;;;;;;;20.90;12.18;;;282.00;1996.80;;;;;;5053052;28;20021;-67
2020/12/30 00:46:33;;;;;;;22.23;13.48;;;282.00;1996.80;;;;;;5053288;28;20455;-67
2020/12/30 00:48:59;;;;;;;21.35;13.10;;;282.00;1971.20;;;;;;5053390;28;20033;-66
2020/12/30 00:51:24;;;;;;;19.40;10.65;;;282.00;1971.20;;;;;;5053356;28;20048;-67
2020/12/30 00:53:50;;;;;;;16.90;9.70;;;281.90;1971.20;;;;;;5053070;28;20029;-67
2020/12/30 00:56:16;;;;;;;16.85;9.82;;;281.90;1971.20;;;;;;5052570;28;20076;-67
2020/12/30 00:58:42;;;;;;;13.88;8.55;;;281.90;1996.80;;;;;;5051324;28;20121;-66
2020/12/30 01:01:09;;;;;;;14.02;7.93;;;282.00;1971.20;;;;;;5051671;28;20040;-66
2020/12/30 01:03:36;;;;;;;15.15;9.10;;;281.90;1996.80;;;;;;5053349;28;20024;-66
2020/12/30 01:06:04;;;;;;;19.52;9.02;;;282.00;1971.20;;;;;;5051902;28;20140;-67
2020/12/30 01:08:30;;;;;;;11.57;7.85;;;282.00;1971.20;;;;;;5056834;28;20095;-67
2020/12/30 01:10:56;;;;;;;12.27;6.57;;;281.90;1971.20;;;;;;5056716;28;20393;-66
2020/12/30 01:13:22;;;;;;;9.55;6.60;;;282.00;1971.20;;;;;;5056829;28;20032;-69
2020/12/30 01:15:48;;;;;;;249.45;171.27;;;281.90;1971.20;;;;;;5056653;28;20029;-76
2020/12/30 01:18:14;;;;;;;69.53;46.13;;;282.10;2073.60;;;;;;5056124;28;20021;-76
2020/12/30 01:20:40;;;;;;;21.42;14.57;;;282.20;2022.40;;;;;;5056824;28;20025;-67
2020/12/30 01:23:06;;;;;;;29.20;12.73;;;282.20;1971.20;;;;;;5056631;28;20049;-67
2020/12/30 01:25:31;;;;;;;20.58;10.35;;;282.20;1971.20;;;;;;5055022;28;20494;-68
2020/12/30 01:27:57;;;;;;;14.93;8.40;;;282.20;1945.60;;;;;;5056941;28;20041;-67
2020/12/30 01:30:24;;;;;;;19.92;9.00;;;282.20;1971.20;;;;;;5056357;28;20025;-68
2020/12/30 01:32:50;;;;;;;16.48;8.20;;;282.20;1945.60;;;;;;5056954;28;20467;-68
2020/12/30 01:35:15;;;;;;;17.25;9.52;;;282.10;1945.60;;;;;;5056579;28;20127;-75
2020/12/30 01:37:41;;;;;;;26.50;13.32;;;282.10;1945.60;;;;;;5056472;28;20375;-68
2020/12/30 01:40:07;;;;;;;53.25;33.00;;;282.10;1971.20;;;;;;5056553;28;20021;-74
2020/12/30 01:42:49;;;;;;;28.45;18.20;;;282.20;1971.20;;;;;;5056616;28;20103;-75
2020/12/30 01:45:15;;;;;;;21.85;14.73;;;282.20;1971.20;;;;;;5056200;28;20021;-68
2020/12/30 01:47:46;;;;;;;30.73;21.75;;;282.20;1971.20;;;;;;5056242;28;20041;-69
2020/12/30 01:50:14;;;;;;;34.92;22.50;;;282.20;1996.80;;;;;;5056031;28;20374;-69
2020/12/30 01:52:41;;;;;;;27.42;18.05;;;282.20;1971.20;;;;;;5055939;28;20134;-75
2020/12/30 01:55:07;;;;;;;24.83;15.48;;;282.30;1971.20;;;;;;5055956;28;20379;-74
2020/12/30 01:57:36;;;;;;;19.27;11.52;;;282.20;1971.20;;;;;;5053866;28;20029;-73
2020/12/30 02:00:02;;;;;;;15.55;10.20;;;282.30;1971.20;;;;;;5055274;28;20035;-73
2020/12/30 02:02:29;;;;;;;13.85;9.05;;;282.20;1971.20;;;;;;5052097;28;20067;-74
2020/12/30 02:04:57;;;;;;;13.48;7.63;;;282.30;1971.20;;;;;;5053709;28;20114;-73
2020/12/30 02:07:24;;;;;;;11.23;6.78;;;282.30;1971.20;;;;;;5054415;28;20044;-67
2020/12/30 02:09:51;;;;;;;8.90;5.95;;;282.20;1971.20;;;;;;5055297;28;20074;-66
2020/12/30 02:12:17;;;;;;;8.50;5.47;;;282.20;1971.20;;;;;;5055768;28;20390;-73
2020/12/30 02:14:43;;;;;;;11.75;6.28;;;282.20;1971.20;;;;;;5055910;28;20021;-66
2020/12/30 02:17:13;;;;;;;8.27;5.85;;;282.30;1971.20;;;;;;5055741;28;20454;-66
2020/12/30 02:19:39;;;;;;;7.63;5.32;;;282.30;1971.20;;;;;;5055555;28;20074;-66
2020/12/30 02:22:07;;;;;;;11.40;6.53;;;282.30;1971.20;;;;;;5055811;28;20029;-66
2020/12/30 02:24:35;;;;;;;11.02;5.15;;;282.30;1971.20;;;;;;5055634;28;20039;-67
2020/12/30 02:27:03;;;;;;;12.43;5.68;;;282.20;1971.20;;;;;;5053690;28;20029;-67
2020/12/30 02:29:30;;;;;;;9.07;5.38;;;282.30;1971.20;;;;;;5055650;28;20048;-73
2020/12/30 02:31:57;;;;;;;7.80;5.43;;;282.30;1971.20;;;;;;5054112;28;20352;-74
2020/12/30 02:34:23;;;;;;;9.93;6.30;;;282.30;1971.20;;;;;;5055508;28;20074;-67
2020/12/30 02:36:49;;;;;;;7.47;5.13;;;282.30;1971.20;;;;;;5055166;28;20027;-67
2020/12/30 02:39:15;;;;;;;10.10;6.20;;;282.30;1971.20;;;;;;5055115;28;20116;-74
2020/12/30 02:41:41;;;;;;;7.63;6.50;;;282.30;1971.20;;;;;;5055512;28;20021;-74
2020/12/30 02:44:07;;;;;;;8.60;5.20;;;282.30;1971.20;;;;;;5054852;28;20040;-74
2020/12/30 02:46:34;;;;;;;8.35;5.75;;;282.30;1971.20;;;;;;5055130;28;20025;-74
2020/12/30 02:48:59;;;;;;;8.02;5.63;;;282.30;1971.20;;;;;;5055180;28;20061;-74
2020/12/30 02:51:25;;;;;;;9.05;5.85;;;282.30;1971.20;;;;;;5055106;28;20035;-74
2020/12/30 02:53:51;;;;;;;7.63;5.50;;;282.30;1971.20;;;;;;5054685;28;20367;-67
2020/12/30 02:56:18;;;;;;;9.20;5.47;;;282.30;1945.60;;;;;;5053529;28;20032;-67
2020/12/30 02:58:47;;;;;;;8.75;5.75;;;282.30;1971.20;;;;;;5054911;28;20408;-74
2020/12/30 03:01:14;;;;;;;9.90;5.78;;;282.30;1971.20;;;;;;5054916;28;20028;-74
2020/12/30 03:03:40;;;;;;;9.07;5.57;;;282.30;1945.60;;;;;;5054811;28;20052;-68
2020/12/30 03:06:07;;;;;;;9.93;6.20;;;282.30;1971.20;;;;;;5054186;28;20502;-68
2020/12/30 03:08:33;;;;;;;10.82;6.50;;;282.20;1945.60;;;;;;5054722;28;20044;-73
2020/12/30 03:11:00;;;;;;;8.57;5.53;;;282.20;1971.20;;;;;;5054643;28;20378;-74
2020/12/30 03:13:26;;;;;;;9.13;5.55;;;282.20;1971.20;;;;;;5053493;28;20479;-68
2020/12/30 03:15:52;;;;;;;11.50;5.68;;;282.20;1971.20;;;;;;5054227;28;20031;-67
2020/12/30 03:18:17;;;;;;;9.73;5.70;;;282.20;1971.20;;;;;;5054627;28;20055;-67
2020/12/30 03:20:43;;;;;;;8.70;5.07;;;282.20;1971.20;;;;;;5054868;28;20056;-68
2020/12/30 03:23:09;;;;;;;8.20;5.32;;;282.20;1945.60;;;;;;5054187;28;20037;-68
2020/12/30 03:25:36;;;;;;;6.78;5.25;;;282.20;1971.20;;;;;;5054567;28;20083;-67
2020/12/30 03:28:02;;;;;;;8.75;5.10;;;282.20;1971.20;;;;;;5054284;28;20475;-67
2020/12/30 03:30:28;;;;;;;9.77;5.60;;;282.20;1971.20;;;;;;5053896;28;20021;-67
2020/12/30 03:32:54;;;;;;;11.65;5.78;;;282.10;1945.60;;;;;;5054380;28;20025;-68
2020/12/30 03:35:24;;;;;;;9.63;5.90;;;282.10;1971.20;;;;;;5053856;28;20086;-67
2020/12/30 03:37:53;;;;;;;10.90;5.50;;;282.10;1945.60;;;;;;5054064;28;20425;-68
2020/12/30 03:40:19;;;;;;;8.55;5.05;;;282.10;1945.60;;;;;;5054169;28;20028;-75
2020/12/30 03:42:46;;;;;;;15.07;5.32;;;282.20;1945.60;;;;;;5054158;28;20029;-73
2020/12/30 03:45:11;;;;;;;9.20;5.28;;;282.20;1971.20;;;;;;5054131;28;20027;-74
2020/12/30 03:47:37;;;;;;;7.63;5.43;;;282.10;1971.20;;;;;;5051648;28;20123;-73
2020/12/30 03:50:04;;;;;;;8.63;5.20;;;282.20;1945.60;;;;;;5054102;28;20028;-74
2020/12/30 03:52:30;;;;;;;11.05;6.30;;;282.10;1945.60;;;;;;5053687;28;20051;-74
2020/12/30 03:54:56;;;;;;;7.70;4.55;;;282.20;1971.20;;;;;;5053590;28;20044;-74
2020/12/30 03:57:22;;;;;;;9.15;4.95;;;282.10;1971.20;;;;;;5053864;28;20021;-72
2020/12/30 03:59:48;;;;;;;7.82;5.32;;;282.20;1945.60;;;;;;5053917;28;20025;-74
2020/12/30 04:02:13;;;;;;;7.35;5.13;;;282.10;1971.20;;;;;;5053857;28;20375;-73
2020/12/30 04:04:39;;;;;;;9.20;5.78;;;282.10;1971.20;;;;;;5053155;28;20136;-68
2020/12/30 04:07:05;;;;;;;9.80;6.00;;;282.20;1971.20;;;;;;5053795;28;20344;-68
2020/12/30 04:09:30;;;;;;;8.77;4.70;;;282.20;1971.20;;;;;;5053869;28;20033;-68
2020/12/30 04:11:56;;;;;;;8.68;4.93;;;282.10;1971.20;;;;;;5053638;28;20021;-68
2020/12/30 04:14:21;;;;;;;6.35;5.30;;;282.10;1971.20;;;;;;5053302;28;20025;-74
2020/12/30 04:16:47;;;;;;;9.95;4.82;;;282.10;1971.20;;;;;;5053650;28;20486;-74
2020/12/30 04:19:13;;;;;;;11.05;4.55;;;282.10;1971.20;;;;;;5053017;28;20057;-68
2020/12/30 04:21:39;;;;;;;7.78;4.50;;;282.10;1971.20;;;;;;5053727;28;20032;-68
2020/12/30 04:24:05;;;;;;;7.55;4.22;;;282.10;1971.20;;;;;;5053416;28;20029;-68
2020/12/30 04:26:31;;;;;;;7.82;4.78;;;282.10;1971.20;;;;;;5053721;28;20025;-68
2020/12/30 04:28:56;;;;;;;7.65;4.63;;;282.10;1971.20;;;;;;5052658;28;20033;-68
2020/12/30 04:31:22;;;;;;;7.40;4.75;;;282.10;1971.20;;;;;;5053556;28;20406;-68
2020/12/30 04:33:48;;;;;;;6.80;4.13;;;282.10;1971.20;;;;;;5053759;28;20025;-68
2020/12/30 04:36:14;;;;;;;8.45;4.65;;;282.10;1971.20;;;;;;5053308;28;20017;-73
2020/12/30 04:38:40;;;;;;;9.32;5.53;;;282.10;1971.20;;;;;;5053265;28;20422;-73
2020/12/30 04:41:11;;;;;;;7.65;4.75;;;282.10;1971.20;;;;;;5053787;28;20044;-69
2020/12/30 04:43:40;;;;;;;10.02;5.13;;;282.10;1971.20;;;;;;5057632;28;20025;-68
2020/12/30 04:46:06;;;;;;;7.18;4.22;;;282.10;1971.20;;;;;;5057490;28;20105;-73
2020/12/30 04:48:33;;;;;;;7.40;4.15;;;282.10;1971.20;;;;;;5055722;28;20056;-72
2020/12/30 04:51:01;;;;;;;6.22;4.25;;;282.10;1971.20;;;;;;5057487;28;20013;-73
2020/12/30 04:53:27;;;;;;;6.68;4.28;;;282.10;1971.20;;;;;;5057150;28;20025;-73
2020/12/30 04:55:57;;;;;;;7.50;4.07;;;282.10;1971.20;;;;;;5057497;28;20029;-73
2020/12/30 04:58:30;;;;;;;8.40;4.70;;;282.10;1971.20;;;;;;5057053;28;20495;-73
2020/12/30 05:00:58;;;;;;;8.73;4.45;;;282.10;1971.20;;;;;;5057182;28;20028;-68
2020/12/30 05:03:29;;;;;;;10.15;4.57;;;282.10;1971.20;;;;;;5057037;28;20045;-68
2020/12/30 05:05:59;;;;;;;8.70;4.88;;;282.00;1945.60;;;;;;5056813;28;20049;-72
2020/12/30 05:08:25;;;;;;;6.72;3.85;;;282.00;1971.20;;;;;;5056887;28;20056;-72
2020/12/30 05:10:52;;;;;;;8.98;4.82;;;282.10;1945.60;;;;;;5056491;28;20547;-72
2020/12/30 05:13:20;;;;;;;7.55;3.72;;;282.10;1945.60;;;;;;5055719;28;20147;-73
2020/12/30 05:15:46;;;;;;;14.55;4.28;;;282.10;1971.20;;;;;;5056810;28;20021;-69
2020/12/30 05:18:12;;;;;;;8.20;3.58;;;282.10;1945.60;;;;;;5056984;28;20025;-68
2020/12/30 05:20:37;;;;;;;9.18;3.97;;;282.10;1971.20;;;;;;5056924;28;20048;-73
2020/12/30 05:23:10;;;;;;;9.25;3.60;;;282.10;1945.60;;;;;;5056698;28;20032;-73
2020/12/30 05:25:36;;;;;;;8.38;3.78;;;282.10;1945.60;;;;;;5056555;28;20036;-68
2020/12/30 05:28:04;;;;;;;6.13;3.55;;;282.10;1945.60;;;;;;5056660;28;20073;-68
2020/12/30 05:30:31;;;;;;;7.22;3.97;;;282.10;1945.60;;;;;;5056724;28;20025;-68
2020/12/30 05:32:58;;;;;;;7.68;3.63;;;282.10;1945.60;;;;;;5056061;28;20102;-68
2020/12/30 05:35:25;;;;;;;10.57;3.92;;;282.20;1945.60;;;;;;5056328;28;20466;-72
2020/12/30 05:37:50;;;;;;;5.13;3.80;;;282.20;1945.60;;;;;;5056656;28;20033;-73
2020/12/30 05:40:24;;;;;;;7.13;3.70;;;282.20;1945.60;;;;;;5056668;28;20040;-73
2020/12/30 05:42:51;;;;;;;7.20;4.15;;;282.20;1945.60;;;;;;5056438;28;20467;-74
2020/12/30 05:45:23;;;;;;;6.30;3.78;;;282.20;1945.60;;;;;;5056428;28;20029;-68
2020/12/30 05:47:52;;;;;;;5.50;3.53;;;282.20;1945.60;;;;;;5056348;28;20041;-69
2020/12/30 05:50:25;;;;;;;10.43;3.83;;;282.20;1945.60;;;;;;5054535;28;20021;-68
2020/12/30 05:52:53;;;;;;;7.97;4.07;;;282.20;1945.60;;;;;;5055402;28;20032;-67
2020/12/30 05:55:26;;;;;;;7.80;4.05;;;282.20;1945.60;;;;;;5056452;28;20025;-70
2020/12/30 05:57:55;;;;;;;11.30;4.50;;;282.30;1945.60;;;;;;5056097;28;20031;-73
2020/12/30 06:00:29;;;;;;;10.02;6.00;;;282.30;1945.60;;;;;;5054507;28;20052;-69
2020/12/30 06:02:55;;;;;;;15.77;11.30;;;282.30;1945.60;;;;;;5052608;28;20021;-71
2020/12/30 06:05:24;;;;;;;52.75;37.20;;;282.30;1920.00;;;;;;5054597;28;20055;-74
2020/12/30 06:07:51;;;;;;;33.03;21.08;;;282.20;1920.00;;;;;;5052043;28;20048;-69
2020/12/30 06:10:20;;;;;;;21.10;14.73;;;282.20;1945.60;;;;;;5054513;28;20097;-69
2020/12/30 06:12:50;;;;;;;19.67;11.25;;;282.20;1945.60;;;;;;5055276;28;20108;-70
2020/12/30 06:15:22;;;;;;;14.23;9.30;;;282.20;1945.60;;;;;;5055630;28;20021;-70
2020/12/30 06:17:55;;;;;;;14.48;7.13;;;282.20;1945.60;;;;;;5055727;28;20021;-69
2020/12/30 06:20:26;;;;;;;26.23;11.90;;;282.30;1945.60;;;;;;5055912;28;20032;-69
2020/12/30 06:22:58;;;;;;;13.23;7.88;;;282.30;1945.60;;;;;;5055702;28;20021;-76
2020/12/30 06:25:25;;;;;;;9.68;6.05;;;282.30;1945.60;;;;;;5055587;28;20078;-71
2020/12/30 06:27:52;;;;;;;22.50;7.20;;;282.30;1920.00;;;;;;5054333;28;20049;-73
2020/12/30 06:30:18;;;;;;;13.38;8.27;;;282.40;1945.60;;;;;;5055325;28;20480;-72
2020/12/30 06:32:44;;;;;;;24.42;14.93;;;282.40;1945.60;;;;;;5055112;28;20115;-75
2020/12/30 06:35:10;;;;;;;40.28;21.30;;;282.40;1945.60;;;;;;5055588;28;20024;-73
2020/12/30 06:37:37;;;;;;;40.40;27.45;;;282.40;1945.60;;;;;;5055184;28;20393;-73
2020/12/30 06:40:23;;;;;;;108.35;32.03;;;282.40;1920.00;;;;;;5055386;28;20021;-73
2020/12/30 06:42:55;;;;;;;65.38;24.13;;;282.40;1920.00;;;;;;5055092;28;20031;-72
2020/12/30 06:45:42;;;;;;;50.28;19.90;;;282.40;1945.60;;;;;;5054986;28;20044;-73
2020/12/30 06:48:12;;;;;;;47.60;29.17;;;282.40;1920.00;;;;;;5055226;28;20110;-73
2020/12/30 06:50:38;;;;;;;91.93;66.85;;;282.40;1920.00;;;;;;5055114;28;20059;-73
2020/12/30 06:53:24;;;;;;;100.57;70.07;;;282.40;1945.60;;;;;;5054855;28;20090;-72
2020/12/30 06:55:50;;;;;;;94.38;65.15;;;282.40;1920.00;;;;;;5054762;28;20423;-73
2020/12/30 06:58:46;;;;;;;81.55;54.85;;;282.40;1945.60;;;;;;5054843;28;20021;-73
2020/12/30 07:01:21;;;;;;;76.85;49.60;;;282.30;1945.60;;;;;;5054872;28;20029;-73
2020/12/30 07:03:49;;;;;;;64.93;39.72;;;282.30;1945.60;;;;;;5054544;28;20025;-73
2020/12/30 07:06:27;;;;;;;53.83;33.97;;;282.40;1945.60;;;;;;5053032;28;20048;-73
2020/12/30 07:08:58;;;;;;;55.80;34.58;;;282.30;1945.60;;;;;;5054720;28;20124;-72
2020/12/30 07:11:40;;;;;;;73.32;53.08;;;282.40;1945.60;;;;;;5053501;28;20115;-72
2020/12/30 07:14:12;;;;;;;104.50;73.95;;;282.30;1945.60;;;;;;5054705;28;20025;-72
2020/12/30 07:16:39;;;;;;;96.68;69.63;;;282.30;1945.60;;;;;;5054793;28;20052;-73
2020/12/30 07:19:17;;;;;;;82.25;54.28;;;282.40;1945.60;;;;;;5054737;28;20546;-74
2020/12/30 07:21:53;;;;;;;71.60;44.40;;;282.30;1920.00;;;;;;5054689;28;20055;-73
2020/12/30 07:24:24;;;;;;;58.95;33.00;;;282.30;1920.00;;;;;;5054295;28;20021;-73
2020/12/30 07:26:59;;;;;;;52.55;34.35;;;282.30;1920.00;;;;;;5054263;28;20048;-73
2020/12/30 07:29:25;;;;;;;76.07;42.45;;;282.20;1920.00;;;;;;5054266;28;20558;-73
2020/12/30 07:31:58;;;;;;;50.38;29.33;;;282.20;1920.00;;;;;;5053748;28;20083;-72
2020/12/30 07:34:26;;;;;;;52.40;34.30;;;282.20;1920.00;;;;;;5054252;28;20090;-73
2020/12/30 07:36:52;;;;;;;58.63;35.67;;;282.20;1920.00;;;;;;5054156;28;20020;-73
2020/12/30 07:39:38;;;;;;;45.63;29.77;;;282.20;1920.00;;;;;;5054014;28;20024;-73
2020/12/30 07:42:11;;;;;;;51.30;30.05;;;282.10;1920.00;;;;;;5054258;28;20036;-73
2020/12/30 07:44:43;;;;;;;54.80;30.98;;;282.10;1920.00;;;;;;5054237;28;20084;-73
2020/12/30 07:47:08;;;;;;;46.75;26.75;;;282.10;1945.60;;;;;;5054011;28;20374;-73
2020/12/30 07:49:34;;;;;;;49.95;24.77;;;282.10;1920.00;;;;;;5054304;28;20029;-72
2020/12/30 07:52:02;;;;;;;31.30;15.10;;;282.10;1945.60;;;;;;5053966;28;20032;-73
2020/12/30 07:54:29;;;;;;;32.85;13.25;;;282.10;1920.00;;;;;;5053916;28;20028;-73
2020/12/30 07:57:12;;;;;;;22.60;13.05;;;282.10;1945.60;;;;;;5054069;28;20029;-73
2020/12/30 07:59:41;;;;;;;27.40;14.43;;;282.10;1920.00;;;;;;5053967;28;20013;-73
2020/12/30 08:02:14;;;;;;;23.92;14.43;;;282.10;1920.00;;;;;;5053883;28;20375;-72
2020/12/30 08:04:41;;;;;;;29.00;13.02;;;282.10;1945.60;;;;;;5053740;28;20067;-73
2020/12/30 08:07:09;;;;;;;24.83;12.57;;;282.10;1945.60;;;;;;5052439;28;20036;-73
2020/12/30 08:09:38;;;;;;;29.80;13.15;;;282.10;1945.60;;;;;;5053863;28;20025;-72
2020/12/30 08:12:06;;;;;;;29.63;12.88;;;282.10;1945.60;;;;;;5053791;28;20104;-72
2020/12/30 08:14:34;;;;;;;32.60;12.43;;;282.10;1945.60;;;;;;5053228;28;20024;-72
2020/12/30 08:17:07;;;;;;;24.85;11.75;;;282.10;1945.60;;;;;;5053319;28;20501;-72
2020/12/30 08:19:36;;;;;;;29.60;13.45;;;282.20;1945.60;;;;;;5053558;28;20037;-72
2020/12/30 08:22:09;;;;;;;27.70;13.52;;;282.20;1945.60;;;;;;5053646;28;20048;-73
2020/12/30 08:24:37;;;;;;;23.92;12.05;;;282.20;1945.60;;;;;;5053368;28;20021;-73
2020/12/30 08:27:04;;;;;;;32.60;14.25;;;282.20;1945.60;;;;;;5053529;28;20025;-72
2020/12/30 08:29:31;;;;;;;40.58;15.57;;;282.20;1945.60;;;;;;5053624;28;20406;-73
2020/12/30 08:32:01;;;;;;;47.97;16.55;;;282.30;1945.60;;;;;;5054185;28;20363;-73
2020/12/30 08:34:38;;;;;;;35.92;16.50;;;282.30;1920.00;;;;;;5053607;28;20052;-75
2020/12/30 08:37:12;;;;;;;41.22;15.23;;;282.30;1971.20;;;;;;5053512;28;20025;-73
2020/12/30 08:39:52;;;;;;;26.85;10.75;;;282.40;1945.60;;;;;;5053409;28;20104;-73
2020/12/30 08:42:35;;;;;;;33.80;15.73;;;282.40;1945.60;;;;;;5053412;28;20024;-72
2020/12/30 08:45:03;;;;;;;22.17;9.32;;;282.50;1971.20;;;;;;5053517;28;20052;-73
2020/12/30 08:47:35;;;;;;;21.45;9.40;;;282.50;1920.00;;;;;;5052724;28;20051;-72
2020/12/30 08:50:02;;;;;;;19.15;8.43;;;307.20;1945.60;;;;;;5053460;28;20032;-72
2020/12/30 08:52:28;;;;;;;14.65;7.57;;;307.20;1971.20;;;;;;5053472;28;20028;-72
2020/12/30 08:55:03;;;;;;;20.23;7.80;;;307.20;1945.60;;;;;;5053395;28;20108;-72
2020/12/30 08:57:29;;;;;;;25.38;10.18;;;307.30;1945.60;;;;;;5053398;28;20070;-72
2020/12/30 09:00:21;;;;;;;26.73;14.23;;;307.40;1945.60;;;;;;5053601;28;20017;-72
2020/12/30 09:02:48;;;;;;;29.38;15.55;;;307.40;1945.60;;;;;;5053497;28;20032;-72
2020/12/30 09:05:25;;;;;;;38.67;21.27;;;307.50;1945.60;;;;;;5053208;28;20057;-73
2020/12/30 09:07:51;;;;;;;25.25;14.52;;;307.60;2022.40;;;;;;5053199;28;20036;-72
2020/12/30 09:10:17;;;;;;;21.00;11.80;;;307.70;1945.60;;;;;;5053296;28;20370;-73
2020/12/30 09:12:43;;;;;;;26.67;11.15;;;307.70;1945.60;;;;;;5053212;28;20033;-72
2020/12/30 09:15:08;;;;;;;26.15;11.23;;;307.70;1945.60;;;;;;5052927;28;20040;-72
2020/12/30 09:17:35;;;;;;;23.77;10.73;;;307.80;1945.60;;;;;;5053168;28;20025;-72
2020/12/30 09:20:15;;;;;;;23.92;11.45;;;307.80;1945.60;;;;;;5051766;28;20106;-72
2020/12/30 09:22:41;;;;;;;20.33;11.55;;;307.80;1920.00;;;;;;5052883;28;20029;-72
2020/12/30 09:25:07;;;;;;;24.17;11.52;;;307.80;1920.00;;;;;;5053200;28;20112;-72
2020/12/30 09:27:35;;;;;;;26.58;14.52;;;307.90;1945.60;;;;;;5053715;28;20036;-72
2020/12/30 09:30:27;;;;;;;24.73;13.27;;;307.90;1945.60;;;;;;5056465;28;20110;-72
2020/12/30 09:33:09;;;;;;;27.67;14.18;;;308.00;1920.00;;;;;;5053929;28;20482;-72
2020/12/30 09:35:34;;;;;;;29.67;14.27;;;308.00;1920.00;;;;;;5056640;28;20481;-72
2020/12/30 09:38:00;;;;;;;44.08;15.63;;;308.10;1920.00;;;;;;5056009;28;20029;-72
2020/12/30 09:40:27;;;;;;;34.25;14.52;;;332.80;1945.60;;;;;;5056129;28;20115;-72
2020/12/30 09:43:19;;;;;;;27.67;15.50;;;332.80;1945.60;;;;;;5056470;28;20029;-72
2020/12/30 09:45:55;;;;;;;24.25;12.70;;;332.80;1945.60;;;;;;5056337;28;20022;-72
2020/12/30 09:48:21;;;;;;;31.48;16.48;;;332.80;1945.60;;;;;;5054594;28;20055;-72
2020/12/30 09:50:48;;;;;;;33.17;20.08;;;332.80;1945.60;;;;;;5056362;28;20083;-72
2020/12/30 09:53:14;;;;;;;112.65;47.80;;;332.90;1945.60;;;;;;5056212;28;20355;-72
2020/12/30 09:55:47;;;;;;;117.93;54.38;;;332.90;1945.60;;;;;;5056075;28;20048;-72
2020/12/30 09:58:14;;;;;;;84.78;41.53;;;333.00;1945.60;;;;;;5054885;28;20103;-72
2020/12/30 10:00:40;;;;;;;58.00;28.65;;;332.90;1945.60;;;;;;5056011;28;20025;-72
2020/12/30 10:03:06;;;;;;;44.78;23.92;;;332.90;1945.60;;;;;;5055995;28;20064;-72
2020/12/30 10:05:32;;;;;;;40.97;19.75;;;333.00;1945.60;;;;;;5055669;28;20041;-72
2020/12/30 10:07:58;;;;;;;44.70;25.13;;;333.00;1920.00;;;;;;5055319;28;20127;-72
2020/12/30 10:10:24;;;;;;;66.43;41.15;;;333.00;1945.60;;;;;;5055932;28;20044;-72
2020/12/30 10:12:50;;;;;;;96.93;56.03;;;333.00;1920.00;;;;;;5055918;28;20052;-72
2020/12/30 10:15:19;;;;;;;125.63;77.78;;;333.00;1920.00;;;;;;5055813;28;20029;-72
2020/12/30 10:17:45;;;;;;;84.68;51.42;;;333.00;1920.00;;;;;;5055647;28;20063;-72
2020/12/30 10:20:12;;;;;;;75.25;44.85;;;333.00;1920.00;;;;;;5055668;28;20490;-72
2020/12/30 10:22:39;;;;;;;52.90;31.33;;;333.00;1920.00;;;;;;5055558;28;20075;-72
2020/12/30 10:25:09;;;;;;;51.72;31.85;;;333.00;1894.40;;;;;;5055670;28;20021;-72
2020/12/30 10:27:35;;;;;;;50.55;29.45;;;333.00;1920.00;;;;;;5055427;28;20463;-72
2020/12/30 10:30:01;;;;;;;110.68;66.32;;;333.00;1920.00;;;;;;5055719;28;20025;-72
2020/12/30 10:32:27;;;;;;;95.18;61.05;;;333.00;1920.00;;;;;;5055596;28;20025;-72
2020/12/30 10:34:52;;;;;;;88.97;55.50;;;332.90;1920.00;;;;;;5055449;28;20073;-72
2020/12/30 10:37:18;;;;;;;77.00;45.50;;;332.90;1945.60;;;;;;5055263;28;20025;-72
2020/12/30 10:39:49;;;;;;;80.05;42.25;;;332.90;1945.60;;;;;;5055369;28;20036;-72
2020/12/30 10:42:16;;;;;;;73.57;39.25;;;332.90;1945.60;;;;;;5054997;28;20029;-71
2020/12/30 10:44:43;;;;;;;77.03;41.22;;;332.90;1945.60;;;;;;5054000;28;20032;-72
2020/12/30 10:47:09;;;;;;;74.60;39.28;;;332.90;1971.20;;;;;;5055247;28;20036;-72
2020/12/30 10:49:35;;;;;;;68.75;38.40;;;332.90;1971.20;;;;;;5055048;28;20025;-72
2020/12/30 10:52:01;;;;;;;63.80;36.00;;;332.90;1971.20;;;;;;5054430;28;20100;-71
2020/12/30 10:54:26;;;;;;;55.15;30.23;;;332.90;1971.20;;;;;;5053501;28;20040;-71
2020/12/30 10:56:53;;;;;;;53.17;29.35;;;332.80;1971.20;;;;;;5055056;28;20025;-72
2020/12/30 10:59:20;;;;;;;53.05;29.38;;;332.90;1971.20;;;;;;5054846;28;20033;-72
2020/12/30 11:01:50;;;;;;;55.30;32.00;;;332.80;1971.20;;;;;;5054678;28;20028;-71
2020/12/30 11:04:15;;;;;;;55.28;31.40;;;332.80;1971.20;;;;;;5054747;28;20049;-72
2020/12/30 11:06:41;;;;;;;45.88;26.48;;;332.90;1996.80;;;;;;5054813;28;20095;-71
2020/12/30 11:09:07;;;;;;;45.58;26.38;;;332.80;1996.80;;;;;;5053276;28;20056;-72
2020/12/30 11:11:34;;;;;;;55.30;29.17;;;332.90;1996.80;;;;;;5054178;28;20082;-72
2020/12/30 11:13:59;;;;;;;59.33;29.33;;;332.90;2022.40;;;;;;5054328;28;20071;-71
2020/12/30 11:16:25;;;;;;;64.45;30.92;;;332.80;2022.40;;;;;;5054739;28;20020;-71
2020/12/30 11:18:51;;;;;;;67.53;34.88;;;332.80;2022.40;;;;;;5054419;28;20075;-71
2020/12/30 11:21:17;;;;;;;91.38;45.15;;;332.80;2022.40;;;;;;5054407;28;20025;-71
2020/12/30 11:23:43;;;;;;;464.25;216.35;;;332.80;2022.40;;;;;;5054523;28;20134;-71
2020/12/30 11:26:09;;;;;;;442.40;222.07;;;332.80;2022.40;;;;;;5054353;28;20102;-71
2020/12/30 11:28:35;;;;;;;228.48;105.68;;;332.80;2022.40;;;;;;5053332;28;20082;-70
2020/12/30 11:31:01;;;;;;;164.20;80.53;;;332.80;2048.00;;;;;;5053313;28;20031;-71
2020/12/30 11:33:26;;;;;;;109.47;53.63;;;308.10;2022.40;;;;;;5052675;28;20048;-70
2020/12/30 11:35:52;;;;;;;132.27;70.22;;;308.10;2022.40;;;;;;5053757;28;20380;-74
2020/12/30 11:38:18;;;;;;;152.57;83.13;;;308.10;2022.40;;;;;;5052464;28;20025;-75
2020/12/30 11:40:43;;;;;;;129.80;68.65;;;332.80;2048.00;;;;;;5053267;28;20032;-71
2020/12/30 11:43:09;;;;;;;127.18;65.07;;;308.10;1996.80;;;;;;5052721;28;20052;-75
2020/12/30 11:45:35;;;;;;;139.27;79.20;;;332.80;2022.40;;;;;;5054037;28;20021;-70
2020/12/30 11:48:08;;;;;;;133.40;75.32;;;332.80;2022.40;;;;;;5053958;28;20079;-71
2020/12/30 11:50:35;;;;;;;114.43;69.85;;;332.80;2022.40;;;;;;5053831;28;20024;-72
2020/12/30 11:53:01;;;;;;;109.20;67.50;;;332.80;2022.40;;;;;;5053826;28;20025;-70
2020/12/30 11:55:27;;;;;;;110.53;64.28;;;332.80;2022.40;;;;;;5053480;28;20558;-71
2020/12/30 11:57:53;;;;;;;99.90;60.17;;;332.80;2022.40;;;;;;5053805;28;20104;-73
2020/12/30 12:00:19;;;;;;;105.65;58.53;;;332.80;2022.40;;;;;;5053122;28;20021;-74
2020/12/30 12:02:44;;;;;;;95.32;56.60;;;332.80;2022.40;;;;;;5054194;28;20417;-72
2020/12/30 12:05:15;;;;;;;87.65;53.88;;;332.80;2022.40;;;;;;5053403;28;20120;-71
2020/12/30 12:07:41;;;;;;;99.93;59.38;;;332.80;2022.40;;;;;;5053738;28;20166;-78